createdAt,value
2017-03-31T00:00:38.389Z,8.10
2017-03-31T00:01:36.903Z,8.10
2017-03-31T00:02:35.393Z,8.10
2017-03-31T00:03:34.652Z,8.10
2017-03-31T00:04:33.148Z,8.00
2017-03-31T00:05:32.066Z,8.10
2017-03-31T00:06:30.576Z,8.10
2017-03-31T00:07:29.866Z,8.10
2017-03-31T00:08:29.113Z,8.10
2017-03-31T00:09:28.392Z,8.10
2017-03-31T00:10:26.917Z,8.10
2017-03-31T00:11:26.919Z,8.10
2017-03-31T00:12:25.381Z,8.10
2017-03-31T00:13:24.604Z,8.00
2017-03-31T00:14:23.105Z,8.00
2017-03-31T00:15:22.333Z,8.00
2017-03-31T00:16:21.612Z,8.00
2017-03-31T00:17:21.214Z,7.90
2017-03-31T00:18:19.793Z,7.90
2017-03-31T00:19:18.281Z,7.90
2017-03-31T00:20:17.527Z,7.90
2017-03-31T00:21:16.780Z,7.90
2017-03-31T00:22:16.054Z,7.90
2017-03-31T00:23:15.605Z,7.90
2017-03-31T00:24:14.076Z,7.90
2017-03-31T00:25:12.561Z,7.90
2017-03-31T00:26:11.851Z,7.90
2017-03-31T00:27:11.077Z,7.90
2017-03-31T00:28:10.318Z,7.90
2017-03-31T00:29:10.060Z,7.90
2017-03-31T00:30:08.532Z,7.80
2017-03-31T00:31:07.814Z,7.80
2017-03-31T00:32:07.037Z,7.80
2017-03-31T00:33:06.299Z,7.80
2017-03-31T00:34:05.561Z,7.80
2017-03-31T00:35:05.156Z,7.70
2017-03-31T00:36:04.432Z,7.70
2017-03-31T00:37:03.738Z,7.70
2017-03-31T00:38:02.260Z,7.70
2017-03-31T00:39:01.526Z,7.80
2017-03-31T00:39:59.999Z,7.70
2017-03-31T00:40:59.630Z,7.70
2017-03-31T00:41:58.900Z,7.70
2017-03-31T00:42:57.388Z,7.70
2017-03-31T00:43:55.880Z,7.70
2017-03-31T00:44:54.361Z,7.70
2017-03-31T00:45:53.615Z,7.70
2017-03-31T00:46:53.188Z,7.70
2017-03-31T00:47:51.658Z,7.70
2017-03-31T00:48:50.207Z,7.70
2017-03-31T00:49:48.688Z,7.70
2017-03-31T00:50:47.173Z,7.70
2017-03-31T00:51:46.435Z,7.70
2017-03-31T00:52:45.186Z,7.70
2017-03-31T00:53:43.743Z,7.60
2017-03-31T00:54:42.224Z,7.70
2017-03-31T00:55:40.736Z,7.60
2017-03-31T00:56:39.984Z,7.60
2017-03-31T00:57:38.477Z,7.50
2017-03-31T00:58:38.028Z,7.60
2017-03-31T00:59:37.282Z,7.60
2017-03-31T01:00:36.549Z,7.60
2017-03-31T01:01:35.815Z,7.60
2017-03-31T01:02:34.360Z,7.50
2017-03-31T01:03:32.812Z,7.60
2017-03-31T01:04:31.577Z,7.60
2017-03-31T01:05:30.163Z,7.60
2017-03-31T01:06:29.443Z,7.60
2017-03-31T01:07:27.948Z,7.50
2017-03-31T01:08:27.209Z,7.50
2017-03-31T01:09:27.210Z,7.50
2017-03-31T01:10:26.776Z,7.50
2017-03-31T01:11:26.031Z,7.50
2017-03-31T01:12:24.496Z,7.40
2017-03-31T01:13:22.984Z,7.40
2017-03-31T01:14:21.458Z,7.50
2017-03-31T01:15:20.147Z,7.40
2017-03-31T01:16:18.920Z,7.40
2017-03-31T01:17:17.444Z,7.40
2017-03-31T01:18:15.939Z,7.40
2017-03-31T01:19:15.184Z,7.40
2017-03-31T01:20:14.417Z,7.30
2017-03-31T01:21:13.653Z,7.30
2017-03-31T01:22:13.273Z,7.40
2017-03-31T01:23:11.741Z,7.30
2017-03-31T01:24:10.205Z,7.30
2017-03-31T01:25:09.433Z,7.30
2017-03-31T01:26:07.904Z,7.30
2017-03-31T01:27:07.141Z,7.30
2017-03-31T01:28:05.948Z,7.30
2017-03-31T01:29:05.221Z,7.30
2017-03-31T01:30:04.509Z,7.30
2017-03-31T01:31:03.760Z,7.30
2017-03-31T01:32:02.245Z,7.30
2017-03-31T01:33:00.713Z,7.30
2017-03-31T01:33:59.541Z,7.30
2017-03-31T01:34:58.773Z,7.30
2017-03-31T01:35:57.298Z,7.20
2017-03-31T01:36:55.807Z,7.30
2017-03-31T01:37:55.063Z,7.20
2017-03-31T01:38:53.557Z,7.20
2017-03-31T01:39:52.396Z,7.30
2017-03-31T01:40:50.892Z,7.30
2017-03-31T01:41:49.409Z,7.30
2017-03-31T01:42:48.668Z,7.30
2017-03-31T01:43:47.923Z,7.30
2017-03-31T01:44:46.395Z,7.30
2017-03-31T01:45:45.227Z,7.30
2017-03-31T01:46:43.727Z,7.30
2017-03-31T01:47:42.229Z,7.30
2017-03-31T01:48:40.735Z,7.30
2017-03-31T01:49:40.016Z,7.20
2017-03-31T01:50:38.500Z,7.20
2017-03-31T01:51:37.349Z,7.30
2017-03-31T01:52:35.825Z,7.20
2017-03-31T01:53:35.072Z,7.20
2017-03-31T01:54:33.574Z,7.20
2017-03-31T01:55:32.079Z,7.20
2017-03-31T01:56:31.353Z,7.20
2017-03-31T01:57:30.228Z,7.10
2017-03-31T01:58:28.794Z,7.20
2017-03-31T01:59:27.288Z,7.20
2017-03-31T02:00:25.761Z,7.20
2017-03-31T02:01:24.308Z,7.10
2017-03-31T02:02:23.576Z,7.10
2017-03-31T02:03:23.129Z,7.10
2017-03-31T02:04:22.649Z,7.10
2017-03-31T02:05:21.916Z,7.10
2017-03-31T02:06:20.411Z,7.10
2017-03-31T02:07:19.657Z,7.10
2017-03-31T02:08:19.071Z,7.00
2017-03-31T02:09:18.730Z,7.10
2017-03-31T02:10:17.256Z,7.00
2017-03-31T02:11:15.735Z,7.10
2017-03-31T02:12:14.209Z,7.10
2017-03-31T02:13:12.695Z,7.10
2017-03-31T02:14:11.200Z,7.10
2017-03-31T02:15:10.756Z,7.00
2017-03-31T02:16:09.246Z,7.00
2017-03-31T02:17:08.496Z,7.00
2017-03-31T02:18:06.999Z,6.90
2017-03-31T02:19:06.260Z,7.00
2017-03-31T02:20:04.744Z,6.90
2017-03-31T02:21:04.264Z,6.90
2017-03-31T02:22:02.763Z,6.90
2017-03-31T02:23:01.990Z,6.90
2017-03-31T02:24:01.228Z,6.90
2017-03-31T02:24:59.696Z,6.90
2017-03-31T02:25:58.517Z,6.90
2017-03-31T02:26:58.162Z,6.90
2017-03-31T02:27:57.406Z,6.90
2017-03-31T02:28:55.867Z,6.90
2017-03-31T02:29:55.119Z,6.90
2017-03-31T02:30:53.630Z,6.90
2017-03-31T02:31:52.880Z,7.00
2017-03-31T02:32:52.418Z,7.00
2017-03-31T02:33:51.660Z,7.00
2017-03-31T02:34:50.186Z,6.90
2017-03-31T02:35:48.681Z,7.00
2017-03-31T02:36:47.935Z,7.00
2017-03-31T02:37:47.162Z,7.00
2017-03-31T02:38:46.900Z,7.00
2017-03-31T02:39:45.353Z,6.90
2017-03-31T02:40:43.828Z,7.00
2017-03-31T02:41:42.295Z,7.00
2017-03-31T02:42:40.810Z,7.00
2017-03-31T02:43:40.118Z,7.10
2017-03-31T02:44:38.888Z,7.10
2017-03-31T02:45:37.348Z,7.20
2017-03-31T02:46:35.870Z,7.10
2017-03-31T02:47:35.144Z,7.10
2017-03-31T02:48:33.603Z,7.00
2017-03-31T02:49:32.081Z,7.10
2017-03-31T02:50:30.936Z,7.10
2017-03-31T02:51:29.411Z,7.10
2017-03-31T02:52:27.877Z,7.00
2017-03-31T02:53:26.369Z,7.10
2017-03-31T02:54:24.862Z,7.00
2017-03-31T02:55:23.350Z,7.00
2017-03-31T02:56:22.129Z,7.00
2017-03-31T02:57:20.617Z,7.00
2017-03-31T02:58:19.064Z,7.00
2017-03-31T02:59:18.306Z,7.10
2017-03-31T03:00:17.559Z,7.10
2017-03-31T03:01:16.807Z,7.10
2017-03-31T03:02:15.593Z,7.00
2017-03-31T03:03:14.049Z,7.00
2017-03-31T03:04:13.297Z,7.00
2017-03-31T03:05:11.811Z,7.00
2017-03-31T03:06:11.820Z,6.90
2017-03-31T03:07:10.331Z,6.90
2017-03-31T03:08:09.956Z,7.00
2017-03-31T03:09:08.425Z,6.90
2017-03-31T03:10:07.649Z,6.90
2017-03-31T03:11:06.156Z,6.90
2017-03-31T03:12:04.660Z,6.90
2017-03-31T03:13:03.142Z,6.90
2017-03-31T03:14:02.709Z,6.90
2017-03-31T03:15:01.196Z,6.80
2017-03-31T03:15:59.665Z,6.90
2017-03-31T03:16:58.187Z,6.80
2017-03-31T03:17:56.676Z,6.80
2017-03-31T03:18:55.940Z,6.80
2017-03-31T03:19:54.809Z,6.70
2017-03-31T03:20:53.284Z,6.80
2017-03-31T03:21:51.922Z,6.80
2017-03-31T03:22:50.418Z,6.80
2017-03-31T03:23:48.886Z,6.80
2017-03-31T03:24:47.356Z,6.80
2017-03-31T03:25:46.213Z,6.80
2017-03-31T03:26:45.468Z,6.80
2017-03-31T03:27:44.032Z,6.70
2017-03-31T03:28:43.285Z,6.70
2017-03-31T03:29:41.791Z,6.70
2017-03-31T03:30:40.295Z,6.70
2017-03-31T03:31:39.872Z,6.70
2017-03-31T03:32:38.344Z,6.60
2017-03-31T03:33:36.849Z,6.70
2017-03-31T03:34:35.343Z,6.70
2017-03-31T03:35:34.614Z,6.70
2017-03-31T03:36:33.104Z,6.60
2017-03-31T03:37:31.881Z,6.70
2017-03-31T03:38:31.129Z,6.70
2017-03-31T03:39:30.387Z,6.70
2017-03-31T03:40:28.969Z,6.60
2017-03-31T03:41:28.265Z,6.60
2017-03-31T03:42:27.606Z,6.60
2017-03-31T03:43:26.479Z,6.60
2017-03-31T03:44:24.985Z,6.70
2017-03-31T03:45:24.231Z,6.70
2017-03-31T03:46:22.762Z,6.60
2017-03-31T03:47:22.100Z,6.60
2017-03-31T03:48:20.603Z,6.60
2017-03-31T03:49:19.393Z,6.60
2017-03-31T03:50:17.902Z,6.60
2017-03-31T03:51:17.168Z,6.60
2017-03-31T03:52:15.637Z,6.50
2017-03-31T03:53:14.092Z,6.50
2017-03-31T03:54:12.574Z,6.60
2017-03-31T03:55:12.145Z,6.50
2017-03-31T03:56:10.645Z,6.50
2017-03-31T03:57:09.897Z,6.50
2017-03-31T03:58:08.376Z,6.50
2017-03-31T03:59:07.615Z,6.60
2017-03-31T04:00:06.097Z,6.50
2017-03-31T04:01:04.973Z,6.50
2017-03-31T04:02:03.462Z,6.50
2017-03-31T04:03:01.938Z,6.50
2017-03-31T04:04:01.204Z,6.50
2017-03-31T04:05:00.500Z,6.50
2017-03-31T04:05:59.097Z,6.50
2017-03-31T04:06:59.762Z,6.50
2017-03-31T04:07:58.299Z,6.50
2017-03-31T04:08:56.877Z,6.50
2017-03-31T04:09:55.364Z,6.50
2017-03-31T04:10:54.633Z,6.40
2017-03-31T04:11:53.100Z,6.40
2017-03-31T04:12:52.691Z,6.50
2017-03-31T04:13:51.165Z,6.40
2017-03-31T04:14:49.643Z,6.50
2017-03-31T04:15:48.101Z,6.50
2017-03-31T04:16:48.984Z,6.50
2017-03-31T04:17:47.480Z,6.40
2017-03-31T04:18:46.352Z,6.40
2017-03-31T04:19:45.609Z,6.50
2017-03-31T04:20:44.897Z,6.50
2017-03-31T04:21:44.186Z,6.40
2017-03-31T04:22:42.647Z,6.40
2017-03-31T04:23:41.132Z,6.50
2017-03-31T04:24:39.903Z,6.50
2017-03-31T04:25:39.168Z,6.50
2017-03-31T04:26:37.672Z,6.40
2017-03-31T04:27:36.931Z,6.40
2017-03-31T04:28:36.223Z,6.50
2017-03-31T04:29:35.542Z,6.40
2017-03-31T04:30:35.077Z,6.40
2017-03-31T04:31:33.574Z,6.40
2017-03-31T04:32:32.821Z,6.50
2017-03-31T04:33:31.299Z,6.40
2017-03-31T04:34:30.558Z,6.50
2017-03-31T04:35:29.889Z,6.40
2017-03-31T04:36:29.451Z,6.50
2017-03-31T04:37:27.952Z,6.40
2017-03-31T04:38:27.201Z,6.40
2017-03-31T04:39:25.740Z,6.40
2017-03-31T04:40:24.287Z,6.40
2017-03-31T04:41:23.575Z,6.40
2017-03-31T04:42:22.988Z,6.40
2017-03-31T04:43:21.535Z,6.40
2017-03-31T04:44:20.046Z,6.40
2017-03-31T04:45:18.587Z,6.40
2017-03-31T04:46:17.129Z,6.40
2017-03-31T04:47:16.432Z,6.30
2017-03-31T04:48:16.156Z,6.30
2017-03-31T04:49:15.400Z,6.30
2017-03-31T04:50:13.877Z,6.30
2017-03-31T04:51:13.125Z,6.40
2017-03-31T04:52:11.592Z,6.30
2017-03-31T04:53:10.826Z,6.40
2017-03-31T04:54:10.352Z,6.40
2017-03-31T04:55:08.813Z,6.40
2017-03-31T04:56:08.088Z,6.40
2017-03-31T04:57:06.551Z,6.40
2017-03-31T04:58:05.075Z,6.40
2017-03-31T04:59:03.553Z,6.40
2017-03-31T05:00:02.441Z,6.50
2017-03-31T05:01:01.681Z,6.50
2017-03-31T05:02:00.902Z,6.60
2017-03-31T05:02:59.395Z,6.60
2017-03-31T05:03:58.610Z,6.60
2017-03-31T05:04:57.828Z,6.70
2017-03-31T05:05:57.447Z,6.70
2017-03-31T05:06:56.166Z,6.60
2017-03-31T05:07:54.730Z,6.70
2017-03-31T05:08:54.064Z,6.80
2017-03-31T05:09:52.536Z,6.70
2017-03-31T05:10:51.829Z,6.80
2017-03-31T05:11:50.626Z,6.80
2017-03-31T05:12:49.869Z,7.10
2017-03-31T05:13:48.346Z,7.00
2017-03-31T05:14:46.879Z,7.10
2017-03-31T05:15:45.447Z,7.10
2017-03-31T05:16:43.934Z,7.20
2017-03-31T05:17:42.796Z,7.40
2017-03-31T05:18:41.264Z,7.50
2017-03-31T05:19:39.737Z,7.60
2017-03-31T05:20:38.969Z,7.80
2017-03-31T05:21:37.500Z,7.70
2017-03-31T05:22:36.789Z,7.90
2017-03-31T05:23:36.345Z,7.90
2017-03-31T05:24:35.724Z,8.00
2017-03-31T05:25:35.057Z,8.10
2017-03-31T05:26:34.301Z,8.10
2017-03-31T05:27:33.543Z,8.20
2017-03-31T05:28:32.804Z,8.30
2017-03-31T05:29:31.567Z,8.30
2017-03-31T05:30:30.810Z,8.60
2017-03-31T05:31:29.451Z,8.50
2017-03-31T05:32:28.068Z,8.60
2017-03-31T05:33:27.353Z,8.70
2017-03-31T05:34:26.636Z,8.80
2017-03-31T05:35:25.551Z,8.70
2017-03-31T05:36:24.801Z,8.90
2017-03-31T05:37:23.329Z,8.90
2017-03-31T05:38:22.584Z,9.10
2017-03-31T05:39:21.859Z,9.10
2017-03-31T05:40:21.096Z,9.20
2017-03-31T05:41:19.886Z,9.10
2017-03-31T05:42:19.183Z,9.10
2017-03-31T05:43:18.442Z,9.10
2017-03-31T05:44:16.934Z,9.10
2017-03-31T05:45:15.455Z,9.30
2017-03-31T05:46:13.965Z,9.40
2017-03-31T05:47:13.535Z,9.60
2017-03-31T05:48:11.997Z,9.60
2017-03-31T05:49:11.234Z,9.80
2017-03-31T05:50:10.491Z,9.80
2017-03-31T05:51:08.969Z,9.80
2017-03-31T05:52:08.217Z,9.90
2017-03-31T05:53:07.083Z,9.90
2017-03-31T05:54:05.627Z,10.00
2017-03-31T05:55:04.133Z,10.10
2017-03-31T05:56:03.384Z,10.20
2017-03-31T05:57:01.951Z,10.10
2017-03-31T05:58:00.441Z,10.30
2017-03-31T05:58:59.322Z,10.40
2017-03-31T05:59:57.866Z,10.50
2017-03-31T06:00:56.345Z,10.60
2017-03-31T06:01:55.611Z,10.70
2017-03-31T06:02:54.256Z,10.60
2017-03-31T06:03:52.776Z,10.70
2017-03-31T06:04:51.618Z,10.80
2017-03-31T06:05:51.041Z,10.80
2017-03-31T06:06:49.585Z,10.80
2017-03-31T06:07:48.117Z,10.90
2017-03-31T06:08:47.385Z,11.10
2017-03-31T06:09:46.617Z,11.30
2017-03-31T06:10:45.389Z,11.20
2017-03-31T06:11:43.860Z,11.30
2017-03-31T06:12:43.100Z,11.40
2017-03-31T06:13:42.392Z,11.60
2017-03-31T06:14:40.848Z,11.50
2017-03-31T06:15:39.501Z,11.60
2017-03-31T06:16:39.035Z,11.80
2017-03-31T06:17:37.569Z,11.70
2017-03-31T06:18:36.041Z,11.90
2017-03-31T06:19:35.108Z,12.10
2017-03-31T06:20:35.211Z,12.20
2017-03-31T06:21:34.464Z,12.30
2017-03-31T06:22:33.383Z,12.20
2017-03-31T06:23:31.891Z,12.30
2017-03-31T06:24:30.590Z,12.40
2017-03-31T06:25:29.050Z,12.50
2017-03-31T06:26:27.521Z,12.70
2017-03-31T06:27:26.980Z,12.90
2017-03-31T06:28:25.841Z,12.90
2017-03-31T06:29:25.092Z,13.30
2017-03-31T06:30:24.384Z,13.30
2017-03-31T06:31:22.908Z,13.30
2017-03-31T06:32:22.182Z,14.00
2017-03-31T06:33:20.650Z,13.90
2017-03-31T06:34:19.474Z,14.30
2017-03-31T06:35:17.953Z,14.40
2017-03-31T06:36:16.456Z,14.60
2017-03-31T06:37:14.925Z,14.90
2017-03-31T06:38:13.447Z,15.20
2017-03-31T06:39:12.753Z,15.70
2017-03-31T06:40:12.341Z,15.80
2017-03-31T06:41:11.643Z,16.00
2017-03-31T06:42:10.889Z,16.10
2017-03-31T06:43:09.464Z,16.10
2017-03-31T06:44:07.965Z,16.40
2017-03-31T06:45:07.240Z,16.60
2017-03-31T06:46:06.088Z,16.60
2017-03-31T06:47:05.321Z,16.80
2017-03-31T06:48:04.595Z,17.00
2017-03-31T06:49:03.085Z,16.90
2017-03-31T06:50:03.556Z,17.20
2017-03-31T06:51:02.050Z,17.20
2017-03-31T06:52:01.591Z,18.00
2017-03-31T06:53:00.072Z,18.00
2017-03-31T06:53:58.788Z,18.00
2017-03-31T06:54:58.048Z,18.20
2017-03-31T06:55:57.284Z,18.60
2017-03-31T06:56:55.762Z,18.50
2017-03-31T06:57:54.529Z,18.80
2017-03-31T06:58:53.765Z,19.20
2017-03-31T06:59:53.001Z,19.50
2017-03-31T07:00:51.461Z,19.50
2017-03-31T07:01:50.700Z,19.60
2017-03-31T07:02:59.279Z,19.90
2017-03-31T07:03:58.782Z,19.90
2017-03-31T07:04:58.041Z,19.90
2017-03-31T07:05:57.466Z,20.10
2017-03-31T07:06:55.944Z,20.00
2017-03-31T07:07:54.505Z,20.30
2017-03-31T07:08:53.405Z,20.30
2017-03-31T07:09:52.652Z,19.70
2017-03-31T07:10:51.905Z,19.80
2017-03-31T07:11:50.417Z,19.70
2017-03-31T07:12:48.927Z,19.90
2017-03-31T07:13:47.411Z,20.20
2017-03-31T07:14:46.241Z,20.20
2017-03-31T07:15:44.733Z,20.30
2017-03-31T07:16:43.218Z,20.30
2017-03-31T07:17:42.475Z,20.30
2017-03-31T07:18:40.955Z,20.30
2017-03-31T07:19:40.216Z,20.30
2017-03-31T07:20:39.093Z,20.30
2017-03-31T07:21:37.584Z,20.40
2017-03-31T07:22:37.104Z,20.00
2017-03-31T07:23:36.340Z,20.10
2017-03-31T07:24:35.573Z,19.70
2017-03-31T07:25:34.109Z,19.60
2017-03-31T07:26:33.709Z,19.60
2017-03-31T07:27:32.950Z,19.70
2017-03-31T07:28:31.471Z,19.60
2017-03-31T07:29:30.015Z,19.80
2017-03-31T07:30:29.257Z,19.90
2017-03-31T07:31:27.783Z,19.90
2017-03-31T07:32:26.651Z,19.90
2017-03-31T07:33:25.916Z,20.00
2017-03-31T07:34:24.412Z,20.00
2017-03-31T07:35:22.945Z,20.30
2017-03-31T07:36:21.441Z,20.60
2017-03-31T07:37:20.701Z,20.70
2017-03-31T07:38:20.253Z,20.70
2017-03-31T07:39:18.712Z,20.70
2017-03-31T07:40:18.369Z,21.00
2017-03-31T07:41:17.627Z,21.10
2017-03-31T07:42:16.104Z,21.10
2017-03-31T07:43:15.360Z,21.40
2017-03-31T07:44:14.151Z,21.40
2017-03-31T07:45:13.423Z,20.90
2017-03-31T07:46:11.913Z,20.80
2017-03-31T07:47:11.173Z,20.80
2017-03-31T07:48:09.642Z,20.70
2017-03-31T07:49:08.885Z,21.10
2017-03-31T07:50:07.759Z,21.00
2017-03-31T07:51:07.050Z,21.30
2017-03-31T07:52:05.549Z,21.30
2017-03-31T07:53:04.020Z,21.60
2017-03-31T07:54:02.519Z,21.00
2017-03-31T07:55:01.003Z,21.10
2017-03-31T07:55:59.791Z,21.30
2017-03-31T07:56:58.368Z,21.40
2017-03-31T07:57:56.918Z,21.70
2017-03-31T07:58:55.435Z,21.80
2017-03-31T07:59:54.709Z,21.60
2017-03-31T08:00:53.941Z,21.90
2017-03-31T08:01:52.729Z,21.80
2017-03-31T08:02:51.223Z,21.70
2017-03-31T08:03:49.694Z,22.20
2017-03-31T08:04:48.956Z,22.70
2017-03-31T08:05:48.197Z,23.10
2017-03-31T08:06:46.680Z,23.00
2017-03-31T08:07:46.273Z,23.70
2017-03-31T08:08:44.784Z,23.70
2017-03-31T08:09:43.269Z,24.10
2017-03-31T08:10:42.519Z,24.00
2017-03-31T08:11:41.017Z,23.90
2017-03-31T08:12:40.342Z,23.90
2017-03-31T08:13:40.061Z,24.40
2017-03-31T08:14:39.329Z,24.60
2017-03-31T08:15:37.848Z,24.60
2017-03-31T08:16:36.325Z,24.70
2017-03-31T08:17:34.883Z,24.80
2017-03-31T08:18:33.521Z,24.90
2017-03-31T08:19:32.272Z,25.20
2017-03-31T08:20:30.738Z,25.10
2017-03-31T08:21:29.210Z,25.00
2017-03-31T08:22:29.013Z,25.30
2017-03-31T08:23:27.485Z,25.20
2017-03-31T08:24:25.990Z,24.90
2017-03-31T08:25:24.764Z,24.70
2017-03-31T08:26:23.228Z,24.60
2017-03-31T08:27:21.704Z,24.80
2017-03-31T08:28:20.211Z,24.90
2017-03-31T08:29:18.720Z,25.30
2017-03-31T08:30:17.208Z,25.70
2017-03-31T08:31:15.989Z,25.70
2017-03-31T08:32:14.468Z,24.90
2017-03-31T08:33:13.703Z,24.60
2017-03-31T08:34:12.246Z,24.50
2017-03-31T08:35:11.503Z,25.20
2017-03-31T08:36:09.969Z,25.20
2017-03-31T08:37:08.716Z,25.50
2017-03-31T08:38:07.210Z,25.70
2017-03-31T08:39:05.681Z,25.80
2017-03-31T08:40:05.061Z,25.30
2017-03-31T08:41:04.440Z,25.10
2017-03-31T08:42:02.936Z,25.00
2017-03-31T08:43:02.483Z,25.20
2017-03-31T08:44:01.009Z,25.10
2017-03-31T08:44:59.510Z,25.20
2017-03-31T08:45:57.997Z,25.00
2017-03-31T08:46:56.501Z,25.10
2017-03-31T08:47:55.741Z,25.30
2017-03-31T08:48:54.593Z,25.20
2017-03-31T08:49:53.853Z,25.10
2017-03-31T08:50:52.327Z,25.10
2017-03-31T08:51:50.955Z,25.30
2017-03-31T08:52:50.281Z,25.20
2017-03-31T08:53:48.793Z,25.10
2017-03-31T08:54:47.541Z,24.90
2017-03-31T08:55:46.027Z,24.90
2017-03-31T08:56:44.509Z,25.10
2017-03-31T08:57:43.773Z,25.30
2017-03-31T08:58:42.253Z,25.30
2017-03-31T08:59:40.716Z,24.70
2017-03-31T09:00:40.359Z,24.50
2017-03-31T09:01:38.844Z,24.50
2017-03-31T09:02:37.308Z,24.60
2017-03-31T09:03:35.828Z,24.60
2017-03-31T09:04:35.204Z,24.40
2017-03-31T09:05:34.454Z,24.60
2017-03-31T09:06:33.976Z,24.80
2017-03-31T09:07:33.197Z,25.40
2017-03-31T09:08:31.681Z,25.30
2017-03-31T09:09:30.255Z,25.60
2017-03-31T09:10:28.730Z,25.90
2017-03-31T09:11:27.229Z,26.10
2017-03-31T09:12:26.775Z,25.70
2017-03-31T09:13:25.980Z,25.80
2017-03-31T09:14:24.452Z,25.80
2017-03-31T09:15:23.862Z,25.90
2017-03-31T09:16:23.115Z,26.00
2017-03-31T09:17:21.586Z,26.00
2017-03-31T09:18:21.124Z,26.00
2017-03-31T09:19:19.571Z,26.00
2017-03-31T09:20:18.061Z,25.60
2017-03-31T09:21:16.550Z,25.80
2017-03-31T09:22:15.063Z,25.60
2017-03-31T09:23:14.320Z,25.40
2017-03-31T09:24:13.858Z,25.00
2017-03-31T09:25:12.333Z,25.00
2017-03-31T09:26:10.835Z,25.20
2017-03-31T09:27:10.102Z,24.60
2017-03-31T09:28:08.630Z,24.50
2017-03-31T09:29:07.223Z,24.60
2017-03-31T09:30:05.996Z,24.60
2017-03-31T09:31:04.481Z,24.80
2017-03-31T09:32:03.016Z,24.90
2017-03-31T09:33:01.490Z,25.00
2017-03-31T09:33:59.976Z,25.00
2017-03-31T09:34:59.213Z,25.30
2017-03-31T09:35:57.965Z,25.20
2017-03-31T09:36:57.280Z,25.60
2017-03-31T09:37:55.736Z,25.60
2017-03-31T09:38:54.213Z,26.00
2017-03-31T09:39:52.760Z,26.30
2017-03-31T09:40:51.352Z,26.10
2017-03-31T09:41:50.331Z,25.80
2017-03-31T09:42:48.791Z,26.00
2017-03-31T09:43:48.010Z,25.30
2017-03-31T09:44:47.236Z,25.80
2017-03-31T09:45:45.717Z,25.70
2017-03-31T09:46:44.180Z,25.80
2017-03-31T09:47:42.948Z,25.50
2017-03-31T09:48:41.421Z,25.60
2017-03-31T09:49:39.912Z,25.70
2017-03-31T09:50:38.418Z,25.90
2017-03-31T09:51:37.663Z,26.00
2017-03-31T09:52:36.137Z,25.90
2017-03-31T09:53:34.968Z,25.90
2017-03-31T09:54:33.431Z,26.00
2017-03-31T09:55:31.889Z,26.10
2017-03-31T09:56:30.344Z,26.10
2017-03-31T09:57:28.833Z,26.10
2017-03-31T09:58:27.321Z,26.40
2017-03-31T09:59:26.844Z,26.30
2017-03-31T10:00:26.110Z,26.00
2017-03-31T10:01:24.622Z,25.90
2017-03-31T10:02:23.173Z,26.00
2017-03-31T10:03:21.643Z,26.10
2017-03-31T10:04:20.138Z,26.20
2017-03-31T10:05:19.008Z,26.00
2017-03-31T10:06:17.465Z,26.40
2017-03-31T10:07:15.923Z,26.40
2017-03-31T10:08:14.408Z,26.30
2017-03-31T10:09:12.909Z,26.40
2017-03-31T10:10:11.417Z,26.20
2017-03-31T10:11:10.308Z,26.20
2017-03-31T10:12:08.932Z,26.20
2017-03-31T10:13:08.505Z,26.10
2017-03-31T10:14:06.989Z,26.10
2017-03-31T10:15:06.313Z,26.00
2017-03-31T10:16:04.769Z,25.90
2017-03-31T10:17:03.541Z,25.90
2017-03-31T10:18:02.045Z,25.50
2017-03-31T10:19:00.661Z,25.90
2017-03-31T10:19:59.132Z,26.20
2017-03-31T10:20:57.638Z,26.60
2017-03-31T10:21:56.156Z,26.90
2017-03-31T10:22:54.964Z,26.80
2017-03-31T10:23:53.440Z,26.80
2017-03-31T10:24:51.889Z,27.00
2017-03-31T10:25:50.385Z,27.20
2017-03-31T10:26:49.624Z,27.70
2017-03-31T10:27:48.858Z,28.00
2017-03-31T10:28:47.695Z,27.90
2017-03-31T10:29:46.157Z,27.70
2017-03-31T10:30:44.633Z,27.80
2017-03-31T10:31:43.852Z,27.70
2017-03-31T10:32:43.084Z,27.50
2017-03-31T10:33:41.555Z,27.40
2017-03-31T10:34:40.344Z,27.40
2017-03-31T10:35:38.884Z,27.20
2017-03-31T10:36:37.345Z,26.80
2017-03-31T10:37:35.817Z,26.30
2017-03-31T10:38:34.343Z,26.10
2017-03-31T10:39:33.589Z,26.30
2017-03-31T10:40:32.442Z,26.20
2017-03-31T10:41:30.928Z,26.40
2017-03-31T10:42:29.384Z,26.40
2017-03-31T10:43:28.672Z,25.60
2017-03-31T10:44:27.184Z,25.60
2017-03-31T10:45:25.788Z,25.80
2017-03-31T10:46:24.588Z,25.80
2017-03-31T10:47:23.078Z,26.00
2017-03-31T10:48:21.565Z,26.30
2017-03-31T10:49:20.032Z,26.50
2017-03-31T10:50:18.540Z,26.20
2017-03-31T10:51:17.028Z,26.70
2017-03-31T10:52:16.677Z,26.50
2017-03-31T10:53:21.905Z,26.40
2017-03-31T10:54:20.396Z,26.70
2017-03-31T10:55:18.880Z,26.40
2017-03-31T10:56:18.136Z,25.90
2017-03-31T10:57:16.980Z,25.80
2017-03-31T10:58:15.528Z,26.10
2017-03-31T10:59:14.000Z,26.10
2017-03-31T11:00:12.573Z,25.70
2017-03-31T11:01:11.066Z,25.90
2017-03-31T11:02:09.529Z,26.20
2017-03-31T11:03:11.330Z,25.90
2017-03-31T11:04:10.717Z,25.80
2017-03-31T11:05:09.213Z,25.70
2017-03-31T11:06:07.701Z,25.80
2017-03-31T11:07:06.161Z,25.80
2017-03-31T11:08:04.658Z,26.10
2017-03-31T11:09:03.892Z,26.30
2017-03-31T11:10:02.405Z,26.40
2017-03-31T11:11:01.657Z,26.20
2017-03-31T11:12:00.124Z,26.20
2017-03-31T11:12:59.566Z,25.80
2017-03-31T11:13:58.032Z,25.80
2017-03-31T11:14:57.646Z,26.30
2017-03-31T11:15:56.151Z,26.30
2017-03-31T11:16:54.633Z,26.20
2017-03-31T11:17:53.849Z,26.20
2017-03-31T11:18:52.317Z,26.10
2017-03-31T11:19:51.641Z,26.10
2017-03-31T11:20:50.425Z,26.00
2017-03-31T11:21:49.677Z,25.50
2017-03-31T11:22:48.164Z,25.40
2017-03-31T11:23:46.664Z,25.50
2017-03-31T11:24:46.084Z,25.60
2017-03-31T11:25:44.636Z,25.50
2017-03-31T11:26:43.449Z,25.70
2017-03-31T11:27:42.698Z,25.40
2017-03-31T11:28:41.176Z,25.30
2017-03-31T11:29:40.303Z,25.60
2017-03-31T11:30:38.770Z,25.80
2017-03-31T11:31:38.086Z,25.80
2017-03-31T11:32:37.103Z,25.80
2017-03-31T11:33:35.589Z,25.90
2017-03-31T11:34:34.863Z,25.70
2017-03-31T11:35:33.343Z,25.60
2017-03-31T11:36:32.570Z,25.50
2017-03-31T11:37:31.073Z,25.50
2017-03-31T11:38:29.920Z,25.40
2017-03-31T11:39:28.402Z,25.30
2017-03-31T11:40:27.113Z,25.30
2017-03-31T11:41:26.345Z,25.30
2017-03-31T11:42:24.828Z,25.30
2017-03-31T11:43:23.349Z,25.40
2017-03-31T11:44:22.149Z,25.40
2017-03-31T11:45:20.932Z,25.70
2017-03-31T11:46:19.398Z,26.00
2017-03-31T11:47:18.629Z,25.60
2017-03-31T11:48:17.227Z,25.60
2017-03-31T11:49:15.761Z,25.80
2017-03-31T11:50:15.300Z,25.90
2017-03-31T11:51:13.799Z,25.80
2017-03-31T11:52:13.040Z,25.90
2017-03-31T11:53:11.492Z,25.80
2017-03-31T11:54:10.737Z,25.90
2017-03-31T11:55:09.962Z,25.80
2017-03-31T11:56:09.557Z,25.70
2017-03-31T11:57:08.008Z,25.70
2017-03-31T11:58:06.501Z,25.30
2017-03-31T11:59:05.712Z,25.60
2017-03-31T12:00:04.943Z,25.80
2017-03-31T12:01:03.525Z,25.70
2017-03-31T12:02:02.392Z,25.30
2017-03-31T12:03:01.625Z,25.40
2017-03-31T12:04:00.093Z,25.40
2017-03-31T12:04:59.362Z,25.00
2017-03-31T12:05:57.883Z,25.00
2017-03-31T12:06:56.344Z,25.20
2017-03-31T12:07:55.116Z,25.10
2017-03-31T12:08:53.573Z,25.00
2017-03-31T12:09:52.101Z,25.10
2017-03-31T12:10:51.393Z,24.90
2017-03-31T12:11:50.620Z,24.70
2017-03-31T12:12:50.069Z,24.70
2017-03-31T12:13:49.796Z,24.40
2017-03-31T12:14:48.338Z,24.40
2017-03-31T12:15:46.807Z,24.30
2017-03-31T12:16:45.285Z,24.50
2017-03-31T12:17:43.767Z,24.50
2017-03-31T12:18:43.084Z,25.00
2017-03-31T12:19:41.932Z,25.00
2017-03-31T12:20:40.400Z,25.20
2017-03-31T12:21:38.921Z,25.20
2017-03-31T12:22:37.427Z,25.00
2017-03-31T12:23:35.930Z,25.30
2017-03-31T12:24:35.229Z,25.40
2017-03-31T12:25:34.897Z,25.50
2017-03-31T12:26:33.352Z,25.50
2017-03-31T12:27:31.812Z,25.50
2017-03-31T12:28:30.316Z,25.20
2017-03-31T12:29:29.553Z,25.10
2017-03-31T12:30:28.029Z,25.00
2017-03-31T12:31:26.792Z,25.00
2017-03-31T12:32:25.285Z,25.20
2017-03-31T12:33:24.535Z,25.40
2017-03-31T12:34:23.011Z,25.30
2017-03-31T12:35:21.508Z,25.20
2017-03-31T12:36:20.873Z,25.00
2017-03-31T12:37:19.835Z,25.00
2017-03-31T12:38:19.087Z,25.10
2017-03-31T12:39:17.595Z,25.00
2017-03-31T12:40:16.073Z,25.10
2017-03-31T12:41:15.380Z,25.30
2017-03-31T12:42:13.841Z,25.20
2017-03-31T12:43:12.632Z,25.40
2017-03-31T12:44:11.131Z,25.30
2017-03-31T12:45:09.630Z,25.40
2017-03-31T12:46:08.866Z,25.40
2017-03-31T12:47:07.444Z,25.30
2017-03-31T12:48:06.749Z,25.30
2017-03-31T12:49:06.275Z,25.40
2017-03-31T12:50:05.521Z,25.20